sensor_id;sensor_type;location;lat;lon;timestamp;P1;durP1;ratioP1;P2;durP2;ratioP2
22080;SDS011;11207;59.512;18.050;2023-12-07T00:00:27;10.87;;;8.03;;
22080;SDS011;11207;59.512;18.050;2023-12-07T00:02:53;14.17;;;8.90;;
22080;SDS011;11207;59.512;18.050;2023-12-07T00:05:19;12.10;;;8.83;;
22080;SDS011;11207;59.512;18.050;2023-12-07T00:07:44;12.60;;;8.30;;
22080;SDS011;11207;59.512;18.050;2023-12-07T00:10:10;13.80;;;9.07;;
22080;SDS011;11207;59.512;18.050;2023-12-07T00:12:35;13.77;;;8.67;;
22080;SDS011;11207;59.512;18.050;2023-12-07T00:15:01;12.53;;;8.63;;
22080;SDS011;11207;59.512;18.050;2023-12-07T00:17:27;13.00;;;8.67;;
22080;SDS011;11207;59.512;18.050;2023-12-07T00:19:53;13.30;;;8.63;;
22080;SDS011;11207;59.512;18.050;2023-12-07T00:22:20;11.13;;;8.10;;
22080;SDS011;11207;59.512;18.050;2023-12-07T00:24:46;11.90;;;8.27;;
22080;SDS011;11207;59.512;18.050;2023-12-07T00:27:11;11.97;;;8.23;;
22080;SDS011;11207;59.512;18.050;2023-12-07T00:29:37;11.93;;;8.20;;
22080;SDS011;11207;59.512;18.050;2023-12-07T00:32:04;12.87;;;8.30;;
22080;SDS011;11207;59.512;18.050;2023-12-07T00:34:30;11.57;;;8.73;;
22080;SDS011;11207;59.512;18.050;2023-12-07T00:36:55;11.60;;;8.33;;
22080;SDS011;11207;59.512;18.050;2023-12-07T00:39:21;10.70;;;7.77;;
22080;SDS011;11207;59.512;18.050;2023-12-07T00:41:46;11.80;;;8.73;;
22080;SDS011;11207;59.512;18.050;2023-12-07T00:44:13;11.33;;;7.33;;
22080;SDS011;11207;59.512;18.050;2023-12-07T00:46:39;11.07;;;8.17;;
22080;SDS011;11207;59.512;18.050;2023-12-07T00:49:05;10.00;;;7.67;;
22080;SDS011;11207;59.512;18.050;2023-12-07T00:51:31;14.50;;;8.40;;
22080;SDS011;11207;59.512;18.050;2023-12-07T00:53:56;9.47;;;7.90;;
22080;SDS011;11207;59.512;18.050;2023-12-07T00:56:23;11.10;;;8.37;;
22080;SDS011;11207;59.512;18.050;2023-12-07T00:58:49;11.53;;;8.40;;
22080;SDS011;11207;59.512;18.050;2023-12-07T01:01:14;11.13;;;8.73;;
22080;SDS011;11207;59.512;18.050;2023-12-07T01:03:40;11.30;;;7.97;;
22080;SDS011;11207;59.512;18.050;2023-12-07T01:06:06;10.17;;;7.90;;
22080;SDS011;11207;59.512;18.050;2023-12-07T01:08:32;11.83;;;8.03;;
22080;SDS011;11207;59.512;18.050;2023-12-07T01:10:57;10.83;;;7.50;;
22080;SDS011;11207;59.512;18.050;2023-12-07T01:13:23;12.63;;;7.90;;
22080;SDS011;11207;59.512;18.050;2023-12-07T01:15:49;11.10;;;7.63;;
22080;SDS011;11207;59.512;18.050;2023-12-07T01:18:16;11.47;;;8.03;;
22080;SDS011;11207;59.512;18.050;2023-12-07T01:20:41;12.13;;;8.07;;
22080;SDS011;11207;59.512;18.050;2023-12-07T01:23:07;10.90;;;8.03;;
22080;SDS011;11207;59.512;18.050;2023-12-07T01:25:39;11.80;;;8.00;;
22080;SDS011;11207;59.512;18.050;2023-12-07T01:28:04;9.67;;;7.50;;
22080;SDS011;11207;59.512;18.050;2023-12-07T01:30:30;11.50;;;8.03;;
22080;SDS011;11207;59.512;18.050;2023-12-07T01:32:55;8.80;;;7.17;;
22080;SDS011;11207;59.512;18.050;2023-12-07T01:35:21;11.63;;;7.93;;
22080;SDS011;11207;59.512;18.050;2023-12-07T01:37:47;9.67;;;7.73;;
22080;SDS011;11207;59.512;18.050;2023-12-07T01:40:12;9.67;;;7.63;;
22080;SDS011;11207;59.512;18.050;2023-12-07T01:42:40;9.43;;;7.10;;
22080;SDS011;11207;59.512;18.050;2023-12-07T01:45:13;10.00;;;6.97;;
22080;SDS011;11207;59.512;18.050;2023-12-07T01:47:39;10.00;;;7.10;;
22080;SDS011;11207;59.512;18.050;2023-12-07T01:50:06;10.10;;;7.33;;
22080;SDS011;11207;59.512;18.050;2023-12-07T01:52:32;13.13;;;7.60;;
22080;SDS011;11207;59.512;18.050;2023-12-07T01:55:02;10.13;;;7.30;;
22080;SDS011;11207;59.512;18.050;2023-12-07T01:57:29;9.17;;;7.10;;
22080;SDS011;11207;59.512;18.050;2023-12-07T01:59:55;8.90;;;7.37;;
22080;SDS011;11207;59.512;18.050;2023-12-07T02:02:21;9.87;;;7.10;;
22080;SDS011;11207;59.512;18.050;2023-12-07T02:04:46;7.77;;;7.07;;
22080;SDS011;11207;59.512;18.050;2023-12-07T02:07:12;7.93;;;7.13;;
22080;SDS011;11207;59.512;18.050;2023-12-07T02:09:38;8.50;;;6.70;;
22080;SDS011;11207;59.512;18.050;2023-12-07T02:12:04;9.53;;;7.30;;
22080;SDS011;11207;59.512;18.050;2023-12-07T02:14:29;9.43;;;7.27;;
22080;SDS011;11207;59.512;18.050;2023-12-07T02:16:57;8.10;;;6.60;;
22080;SDS011;11207;59.512;18.050;2023-12-07T02:22:18;10.03;;;7.37;;
22080;SDS011;11207;59.512;18.050;2023-12-07T02:25:01;8.23;;;6.60;;
22080;SDS011;11207;59.512;18.050;2023-12-07T02:30:01;7.97;;;6.13;;
22080;SDS011;11207;59.512;18.050;2023-12-07T02:32:27;9.23;;;6.77;;
22080;SDS011;11207;59.512;18.050;2023-12-07T02:34:53;7.77;;;6.63;;
22080;SDS011;11207;59.512;18.050;2023-12-07T02:37:19;8.40;;;6.67;;
22080;SDS011;11207;59.512;18.050;2023-12-07T02:39:47;10.20;;;7.17;;
22080;SDS011;11207;59.512;18.050;2023-12-07T02:42:13;7.50;;;6.73;;
22080;SDS011;11207;59.512;18.050;2023-12-07T02:44:40;7.83;;;6.70;;
22080;SDS011;11207;59.512;18.050;2023-12-07T02:47:06;7.43;;;6.63;;
22080;SDS011;11207;59.512;18.050;2023-12-07T02:49:32;9.20;;;6.70;;
22080;SDS011;11207;59.512;18.050;2023-12-07T02:51:58;9.37;;;6.60;;
22080;SDS011;11207;59.512;18.050;2023-12-07T02:54:23;7.63;;;6.83;;
22080;SDS011;11207;59.512;18.050;2023-12-07T02:56:49;7.57;;;6.43;;
22080;SDS011;11207;59.512;18.050;2023-12-07T02:59:14;9.37;;;6.73;;
22080;SDS011;11207;59.512;18.050;2023-12-07T03:01:40;7.70;;;6.90;;
22080;SDS011;11207;59.512;18.050;2023-12-07T03:04:06;7.40;;;6.50;;
22080;SDS011;11207;59.512;18.050;2023-12-07T03:06:31;8.57;;;6.80;;
22080;SDS011;11207;59.512;18.050;2023-12-07T03:08:57;6.93;;;6.27;;
22080;SDS011;11207;59.512;18.050;2023-12-07T03:11:22;12.27;;;7.07;;
22080;SDS011;11207;59.512;18.050;2023-12-07T03:13:49;7.37;;;6.20;;
22080;SDS011;11207;59.512;18.050;2023-12-07T03:16:15;8.57;;;6.60;;
22080;SDS011;11207;59.512;18.050;2023-12-07T03:18:40;7.40;;;6.33;;
22080;SDS011;11207;59.512;18.050;2023-12-07T03:21:06;7.63;;;6.30;;
22080;SDS011;11207;59.512;18.050;2023-12-07T03:23:32;9.20;;;7.00;;
22080;SDS011;11207;59.512;18.050;2023-12-07T03:25:57;9.37;;;6.50;;
22080;SDS011;11207;59.512;18.050;2023-12-07T03:28:23;7.23;;;6.50;;
22080;SDS011;11207;59.512;18.050;2023-12-07T03:30:48;7.27;;;6.57;;
22080;SDS011;11207;59.512;18.050;2023-12-07T03:33:14;8.37;;;6.90;;
22080;SDS011;11207;59.512;18.050;2023-12-07T03:35:40;6.80;;;6.10;;
22080;SDS011;11207;59.512;18.050;2023-12-07T03:38:06;8.83;;;6.73;;
22080;SDS011;11207;59.512;18.050;2023-12-07T03:40:31;6.80;;;6.17;;
22080;SDS011;11207;59.512;18.050;2023-12-07T03:42:57;7.00;;;6.30;;
22080;SDS011;11207;59.512;18.050;2023-12-07T03:45:23;6.90;;;6.03;;
22080;SDS011;11207;59.512;18.050;2023-12-07T03:47:49;7.00;;;6.30;;
22080;SDS011;11207;59.512;18.050;2023-12-07T03:50:14;8.30;;;6.57;;
22080;SDS011;11207;59.512;18.050;2023-12-07T03:52:40;7.80;;;6.47;;
22080;SDS011;11207;59.512;18.050;2023-12-07T03:55:06;8.37;;;6.20;;
22080;SDS011;11207;59.512;18.050;2023-12-07T03:57:32;6.93;;;6.23;;
22080;SDS011;11207;59.512;18.050;2023-12-07T03:59:57;7.33;;;6.53;;
22080;SDS011;11207;59.512;18.050;2023-12-07T04:02:23;6.77;;;6.07;;
22080;SDS011;11207;59.512;18.050;2023-12-07T04:04:49;8.53;;;6.23;;
22080;SDS011;11207;59.512;18.050;2023-12-07T04:07:14;6.87;;;5.80;;
22080;SDS011;11207;59.512;18.050;2023-12-07T04:09:40;7.83;;;6.37;;
22080;SDS011;11207;59.512;18.050;2023-12-07T04:12:06;7.20;;;6.50;;
22080;SDS011;11207;59.512;18.050;2023-12-07T04:14:31;7.47;;;6.40;;
22080;SDS011;11207;59.512;18.050;2023-12-07T04:16:57;6.73;;;6.07;;
22080;SDS011;11207;59.512;18.050;2023-12-07T04:19:23;7.70;;;6.90;;
22080;SDS011;11207;59.512;18.050;2023-12-07T04:21:48;7.17;;;6.47;;
22080;SDS011;11207;59.512;18.050;2023-12-07T04:24:14;7.50;;;6.77;;
22080;SDS011;11207;59.512;18.050;2023-12-07T04:26:39;6.50;;;5.90;;
22080;SDS011;11207;59.512;18.050;2023-12-07T04:29:05;7.20;;;6.13;;
22080;SDS011;11207;59.512;18.050;2023-12-07T04:31:30;7.33;;;6.50;;
22080;SDS011;11207;59.512;18.050;2023-12-07T04:33:56;7.17;;;6.47;;
22080;SDS011;11207;59.512;18.050;2023-12-07T04:36:21;6.77;;;6.13;;
22080;SDS011;11207;59.512;18.050;2023-12-07T04:38:47;8.10;;;6.70;;
22080;SDS011;11207;59.512;18.050;2023-12-07T04:41:13;6.87;;;6.27;;
22080;SDS011;11207;59.512;18.050;2023-12-07T04:43:38;6.90;;;6.20;;
22080;SDS011;11207;59.512;18.050;2023-12-07T04:46:04;6.80;;;6.10;;
22080;SDS011;11207;59.512;18.050;2023-12-07T04:48:30;8.03;;;6.53;;
22080;SDS011;11207;59.512;18.050;2023-12-07T04:50:56;9.77;;;6.83;;
22080;SDS011;11207;59.512;18.050;2023-12-07T04:53:21;7.30;;;6.17;;
22080;SDS011;11207;59.512;18.050;2023-12-07T04:55:47;6.60;;;6.00;;
22080;SDS011;11207;59.512;18.050;2023-12-07T04:58:15;8.07;;;6.60;;
22080;SDS011;11207;59.512;18.050;2023-12-07T05:00:40;7.33;;;6.33;;
22080;SDS011;11207;59.512;18.050;2023-12-07T05:03:06;6.67;;;5.97;;
22080;SDS011;11207;59.512;18.050;2023-12-07T05:05:32;7.57;;;6.40;;
22080;SDS011;11207;59.512;18.050;2023-12-07T05:07:58;9.93;;;7.20;;
22080;SDS011;11207;59.512;18.050;2023-12-07T05:10:23;7.07;;;6.37;;
22080;SDS011;11207;59.512;18.050;2023-12-07T05:12:49;7.60;;;6.60;;
22080;SDS011;11207;59.512;18.050;2023-12-07T05:15:15;7.17;;;6.13;;
22080;SDS011;11207;59.512;18.050;2023-12-07T05:17:41;8.23;;;7.10;;
22080;SDS011;11207;59.512;18.050;2023-12-07T05:20:06;8.83;;;6.50;;
22080;SDS011;11207;59.512;18.050;2023-12-07T05:22:32;8.43;;;6.23;;
22080;SDS011;11207;59.512;18.050;2023-12-07T05:24:58;8.10;;;6.40;;
22080;SDS011;11207;59.512;18.050;2023-12-07T05:27:24;7.67;;;6.53;;
22080;SDS011;11207;59.512;18.050;2023-12-07T05:29:49;10.07;;;7.10;;
22080;SDS011;11207;59.512;18.050;2023-12-07T05:32:15;8.40;;;6.80;;
22080;SDS011;11207;59.512;18.050;2023-12-07T05:34:41;8.50;;;6.90;;
22080;SDS011;11207;59.512;18.050;2023-12-07T05:37:07;8.33;;;6.93;;
22080;SDS011;11207;59.512;18.050;2023-12-07T05:39:33;10.33;;;6.47;;
22080;SDS011;11207;59.512;18.050;2023-12-07T05:41:58;9.20;;;7.60;;
22080;SDS011;11207;59.512;18.050;2023-12-07T05:44:24;9.47;;;7.50;;
22080;SDS011;11207;59.512;18.050;2023-12-07T05:46:49;10.87;;;7.93;;
22080;SDS011;11207;59.512;18.050;2023-12-07T05:49:15;9.83;;;7.53;;
22080;SDS011;11207;59.512;18.050;2023-12-07T05:51:41;8.53;;;7.03;;
22080;SDS011;11207;59.512;18.050;2023-12-07T05:54:07;9.10;;;7.30;;
22080;SDS011;11207;59.512;18.050;2023-12-07T05:56:32;8.70;;;7.40;;
22080;SDS011;11207;59.512;18.050;2023-12-07T05:58:58;9.70;;;7.57;;
22080;SDS011;11207;59.512;18.050;2023-12-07T06:01:23;11.07;;;8.17;;
22080;SDS011;11207;59.512;18.050;2023-12-07T06:03:49;9.10;;;7.40;;
22080;SDS011;11207;59.512;18.050;2023-12-07T06:06:15;9.47;;;7.00;;
22080;SDS011;11207;59.512;18.050;2023-12-07T06:08:41;10.37;;;7.33;;
22080;SDS011;11207;59.512;18.050;2023-12-07T06:11:07;10.17;;;7.80;;
22080;SDS011;11207;59.512;18.050;2023-12-07T06:13:32;9.77;;;7.23;;
22080;SDS011;11207;59.512;18.050;2023-12-07T06:15:58;9.17;;;7.07;;
22080;SDS011;11207;59.512;18.050;2023-12-07T06:18:24;9.23;;;7.40;;
22080;SDS011;11207;59.512;18.050;2023-12-07T06:20:50;9.97;;;7.50;;
22080;SDS011;11207;59.512;18.050;2023-12-07T06:23:16;10.37;;;7.23;;
22080;SDS011;11207;59.512;18.050;2023-12-07T06:25:42;8.63;;;7.27;;
22080;SDS011;11207;59.512;18.050;2023-12-07T06:28:07;9.77;;;7.67;;
22080;SDS011;11207;59.512;18.050;2023-12-07T06:30:33;8.97;;;7.53;;
22080;SDS011;11207;59.512;18.050;2023-12-07T06:32:59;8.93;;;7.40;;
22080;SDS011;11207;59.512;18.050;2023-12-07T06:35:25;9.73;;;7.53;;
22080;SDS011;11207;59.512;18.050;2023-12-07T06:37:51;8.77;;;7.30;;
22080;SDS011;11207;59.512;18.050;2023-12-07T06:40:16;9.97;;;7.43;;
22080;SDS011;11207;59.512;18.050;2023-12-07T06:42:42;10.47;;;7.23;;
22080;SDS011;11207;59.512;18.050;2023-12-07T06:45:08;9.57;;;7.97;;
22080;SDS011;11207;59.512;18.050;2023-12-07T06:47:39;9.33;;;7.73;;
22080;SDS011;11207;59.512;18.050;2023-12-07T06:50:07;8.60;;;6.97;;
22080;SDS011;11207;59.512;18.050;2023-12-07T06:52:35;9.27;;;7.70;;
22080;SDS011;11207;59.512;18.050;2023-12-07T06:55:01;11.37;;;7.50;;
22080;SDS011;11207;59.512;18.050;2023-12-07T06:57:27;9.37;;;7.33;;
22080;SDS011;11207;59.512;18.050;2023-12-07T06:59:52;10.00;;;7.50;;
22080;SDS011;11207;59.512;18.050;2023-12-07T07:02:18;9.60;;;7.53;;
22080;SDS011;11207;59.512;18.050;2023-12-07T07:04:44;9.87;;;7.47;;
22080;SDS011;11207;59.512;18.050;2023-12-07T07:07:09;9.60;;;7.90;;
22080;SDS011;11207;59.512;18.050;2023-12-07T07:09:35;14.43;;;8.20;;
22080;SDS011;11207;59.512;18.050;2023-12-07T07:12:00;12.27;;;8.63;;
22080;SDS011;11207;59.512;18.050;2023-12-07T07:14:26;11.60;;;7.57;;
22080;SDS011;11207;59.512;18.050;2023-12-07T07:16:52;11.40;;;7.63;;
22080;SDS011;11207;59.512;18.050;2023-12-07T07:19:17;10.60;;;7.53;;
22080;SDS011;11207;59.512;18.050;2023-12-07T07:21:43;11.10;;;7.97;;
22080;SDS011;11207;59.512;18.050;2023-12-07T07:24:09;12.17;;;8.67;;
22080;SDS011;11207;59.512;18.050;2023-12-07T07:26:35;9.47;;;7.97;;
22080;SDS011;11207;59.512;18.050;2023-12-07T07:29:00;10.83;;;7.77;;
22080;SDS011;11207;59.512;18.050;2023-12-07T07:31:26;14.97;;;8.63;;
22080;SDS011;11207;59.512;18.050;2023-12-07T07:33:52;10.27;;;7.23;;
22080;SDS011;11207;59.512;18.050;2023-12-07T07:36:29;10.13;;;7.43;;
22080;SDS011;11207;59.512;18.050;2023-12-07T07:38:55;9.77;;;7.60;;
22080;SDS011;11207;59.512;18.050;2023-12-07T07:41:20;11.20;;;7.87;;
22080;SDS011;11207;59.512;18.050;2023-12-07T07:43:46;11.13;;;8.77;;
22080;SDS011;11207;59.512;18.050;2023-12-07T07:46:12;10.90;;;8.13;;
22080;SDS011;11207;59.512;18.050;2023-12-07T07:48:38;10.60;;;8.03;;
22080;SDS011;11207;59.512;18.050;2023-12-07T07:51:04;10.80;;;7.80;;
22080;SDS011;11207;59.512;18.050;2023-12-07T07:53:30;9.67;;;7.73;;
22080;SDS011;11207;59.512;18.050;2023-12-07T07:55:55;10.20;;;7.63;;
22080;SDS011;11207;59.512;18.050;2023-12-07T07:58:21;9.63;;;7.40;;
22080;SDS011;11207;59.512;18.050;2023-12-07T08:00:46;12.07;;;8.13;;
22080;SDS011;11207;59.512;18.050;2023-12-07T08:03:12;10.00;;;8.27;;
22080;SDS011;11207;59.512;18.050;2023-12-07T08:05:38;11.73;;;8.57;;
22080;SDS011;11207;59.512;18.050;2023-12-07T08:08:03;12.10;;;8.67;;
22080;SDS011;11207;59.512;18.050;2023-12-07T08:10:29;10.77;;;8.03;;
22080;SDS011;11207;59.512;18.050;2023-12-07T08:12:54;11.63;;;8.77;;
22080;SDS011;11207;59.512;18.050;2023-12-07T08:15:20;14.07;;;9.23;;
22080;SDS011;11207;59.512;18.050;2023-12-07T08:17:46;13.23;;;8.90;;
22080;SDS011;11207;59.512;18.050;2023-12-07T08:20:12;11.43;;;8.73;;
22080;SDS011;11207;59.512;18.050;2023-12-07T08:22:39;11.10;;;8.37;;
22080;SDS011;11207;59.512;18.050;2023-12-07T08:25:10;12.10;;;8.33;;
22080;SDS011;11207;59.512;18.050;2023-12-07T08:27:36;13.27;;;8.53;;
22080;SDS011;11207;59.512;18.050;2023-12-07T08:30:02;11.40;;;8.43;;
22080;SDS011;11207;59.512;18.050;2023-12-07T08:32:29;10.73;;;8.10;;
22080;SDS011;11207;59.512;18.050;2023-12-07T08:34:54;12.43;;;8.37;;
22080;SDS011;11207;59.512;18.050;2023-12-07T08:37:20;13.33;;;8.40;;
22080;SDS011;11207;59.512;18.050;2023-12-07T08:39:46;14.20;;;9.07;;
22080;SDS011;11207;59.512;18.050;2023-12-07T08:42:11;12.03;;;8.20;;
22080;SDS011;11207;59.512;18.050;2023-12-07T08:44:37;12.07;;;8.50;;
22080;SDS011;11207;59.512;18.050;2023-12-07T08:47:03;11.93;;;8.47;;
22080;SDS011;11207;59.512;18.050;2023-12-07T08:49:29;11.57;;;8.37;;
22080;SDS011;11207;59.512;18.050;2023-12-07T08:51:54;12.10;;;8.17;;
22080;SDS011;11207;59.512;18.050;2023-12-07T08:54:21;11.67;;;8.57;;
22080;SDS011;11207;59.512;18.050;2023-12-07T08:56:46;10.93;;;8.03;;
22080;SDS011;11207;59.512;18.050;2023-12-07T08:59:12;13.20;;;9.30;;
22080;SDS011;11207;59.512;18.050;2023-12-07T09:01:38;12.87;;;8.27;;
22080;SDS011;11207;59.512;18.050;2023-12-07T09:04:04;15.00;;;9.40;;
22080;SDS011;11207;59.512;18.050;2023-12-07T09:06:30;13.20;;;8.97;;
22080;SDS011;11207;59.512;18.050;2023-12-07T09:08:56;14.00;;;9.23;;
22080;SDS011;11207;59.512;18.050;2023-12-07T09:11:21;13.13;;;8.40;;
22080;SDS011;11207;59.512;18.050;2023-12-07T09:13:47;11.73;;;8.27;;
22080;SDS011;11207;59.512;18.050;2023-12-07T09:16:13;12.83;;;8.10;;
22080;SDS011;11207;59.512;18.050;2023-12-07T09:18:40;10.67;;;8.00;;
22080;SDS011;11207;59.512;18.050;2023-12-07T09:21:06;10.70;;;7.90;;
22080;SDS011;11207;59.512;18.050;2023-12-07T09:23:32;12.57;;;8.07;;
22080;SDS011;11207;59.512;18.050;2023-12-07T09:25:57;10.10;;;7.77;;
22080;SDS011;11207;59.512;18.050;2023-12-07T09:28:23;12.83;;;8.60;;
22080;SDS011;11207;59.512;18.050;2023-12-07T09:30:49;13.63;;;8.90;;
22080;SDS011;11207;59.512;18.050;2023-12-07T09:33:14;12.37;;;8.90;;
22080;SDS011;11207;59.512;18.050;2023-12-07T09:35:40;13.80;;;9.07;;
22080;SDS011;11207;59.512;18.050;2023-12-07T09:38:05;12.63;;;8.47;;
22080;SDS011;11207;59.512;18.050;2023-12-07T09:40:32;12.37;;;8.67;;
22080;SDS011;11207;59.512;18.050;2023-12-07T09:42:58;14.40;;;9.37;;
22080;SDS011;11207;59.512;18.050;2023-12-07T09:45:24;14.30;;;9.63;;
22080;SDS011;11207;59.512;18.050;2023-12-07T09:47:50;15.17;;;9.77;;
22080;SDS011;11207;59.512;18.050;2023-12-07T09:50:18;16.97;;;10.40;;
22080;SDS011;11207;59.512;18.050;2023-12-07T09:52:47;13.60;;;9.60;;
22080;SDS011;11207;59.512;18.050;2023-12-07T09:55:15;12.20;;;8.93;;
22080;SDS011;11207;59.512;18.050;2023-12-07T09:57:42;14.43;;;9.27;;
22080;SDS011;11207;59.512;18.050;2023-12-07T10:00:08;17.07;;;9.10;;
22080;SDS011;11207;59.512;18.050;2023-12-07T10:02:39;15.63;;;9.47;;
22080;SDS011;11207;59.512;18.050;2023-12-07T10:05:06;15.57;;;9.87;;
22080;SDS011;11207;59.512;18.050;2023-12-07T10:07:35;12.57;;;9.07;;
22080;SDS011;11207;59.512;18.050;2023-12-07T10:10:03;14.40;;;9.50;;
22080;SDS011;11207;59.512;18.050;2023-12-07T10:12:30;12.63;;;8.83;;
22080;SDS011;11207;59.512;18.050;2023-12-07T10:14:58;13.70;;;9.33;;
22080;SDS011;11207;59.512;18.050;2023-12-07T10:17:24;12.23;;;8.53;;
22080;SDS011;11207;59.512;18.050;2023-12-07T10:20:07;11.87;;;8.43;;
22080;SDS011;11207;59.512;18.050;2023-12-07T10:22:34;12.23;;;8.23;;
22080;SDS011;11207;59.512;18.050;2023-12-07T10:25:00;10.23;;;7.93;;
22080;SDS011;11207;59.512;18.050;2023-12-07T10:27:25;11.93;;;7.90;;
22080;SDS011;11207;59.512;18.050;2023-12-07T10:29:53;10.57;;;8.00;;
22080;SDS011;11207;59.512;18.050;2023-12-07T10:32:19;9.67;;;7.60;;
22080;SDS011;11207;59.512;18.050;2023-12-07T10:34:46;11.63;;;7.67;;
22080;SDS011;11207;59.512;18.050;2023-12-07T10:37:12;9.80;;;7.50;;
22080;SDS011;11207;59.512;18.050;2023-12-07T10:39:37;10.20;;;8.00;;
22080;SDS011;11207;59.512;18.050;2023-12-07T10:42:03;10.77;;;7.63;;
22080;SDS011;11207;59.512;18.050;2023-12-07T10:44:35;9.23;;;7.43;;
22080;SDS011;11207;59.512;18.050;2023-12-07T10:47:07;9.80;;;6.90;;
22080;SDS011;11207;59.512;18.050;2023-12-07T10:49:35;9.33;;;7.30;;
22080;SDS011;11207;59.512;18.050;2023-12-07T10:52:03;10.30;;;7.43;;
22080;SDS011;11207;59.512;18.050;2023-12-07T10:54:39;8.90;;;6.90;;
22080;SDS011;11207;59.512;18.050;2023-12-07T10:57:19;10.33;;;7.80;;
22080;SDS011;11207;59.512;18.050;2023-12-07T10:59:46;9.73;;;7.07;;
22080;SDS011;11207;59.512;18.050;2023-12-07T11:02:15;8.33;;;6.80;;
22080;SDS011;11207;59.512;18.050;2023-12-07T11:04:41;9.63;;;7.37;;
22080;SDS011;11207;59.512;18.050;2023-12-07T11:07:10;10.07;;;7.50;;
22080;SDS011;11207;59.512;18.050;2023-12-07T11:09:41;10.73;;;7.53;;
22080;SDS011;11207;59.512;18.050;2023-12-07T11:12:13;7.80;;;6.90;;
22080;SDS011;11207;59.512;18.050;2023-12-07T11:14:46;10.27;;;7.80;;
22080;SDS011;11207;59.512;18.050;2023-12-07T11:17:14;10.13;;;7.40;;
22080;SDS011;11207;59.512;18.050;2023-12-07T11:22:11;12.13;;;7.70;;
22080;SDS011;11207;59.512;18.050;2023-12-07T11:24:44;12.57;;;8.83;;
22080;SDS011;11207;59.512;18.050;2023-12-07T11:27:17;10.57;;;7.87;;
22080;SDS011;11207;59.512;18.050;2023-12-07T11:29:43;12.23;;;7.80;;
22080;SDS011;11207;59.512;18.050;2023-12-07T11:32:13;13.17;;;8.20;;
22080;SDS011;11207;59.512;18.050;2023-12-07T11:34:40;12.27;;;8.53;;
22080;SDS011;11207;59.512;18.050;2023-12-07T11:37:08;12.37;;;8.73;;
22080;SDS011;11207;59.512;18.050;2023-12-07T11:39:35;11.03;;;8.03;;
22080;SDS011;11207;59.512;18.050;2023-12-07T11:42:18;16.33;;;8.63;;
22080;SDS011;11207;59.512;18.050;2023-12-07T11:44:47;12.73;;;8.63;;
22080;SDS011;11207;59.512;18.050;2023-12-07T11:47:20;13.20;;;8.20;;
22080;SDS011;11207;59.512;18.050;2023-12-07T11:49:46;11.83;;;8.60;;
22080;SDS011;11207;59.512;18.050;2023-12-07T11:52:13;15.67;;;8.77;;
22080;SDS011;11207;59.512;18.050;2023-12-07T11:54:39;11.13;;;8.13;;
22080;SDS011;11207;59.512;18.050;2023-12-07T11:57:05;10.57;;;7.83;;
22080;SDS011;11207;59.512;18.050;2023-12-07T11:59:31;12.33;;;8.70;;
22080;SDS011;11207;59.512;18.050;2023-12-07T12:01:58;12.77;;;8.93;;
22080;SDS011;11207;59.512;18.050;2023-12-07T12:04:24;14.00;;;8.73;;
22080;SDS011;11207;59.512;18.050;2023-12-07T12:06:51;12.10;;;8.67;;
22080;SDS011;11207;59.512;18.050;2023-12-07T12:09:16;14.07;;;9.43;;
22080;SDS011;11207;59.512;18.050;2023-12-07T12:11:49;12.43;;;8.90;;
22080;SDS011;11207;59.512;18.050;2023-12-07T12:14:18;12.87;;;8.80;;
22080;SDS011;11207;59.512;18.050;2023-12-07T12:16:45;13.10;;;8.23;;
22080;SDS011;11207;59.512;18.050;2023-12-07T12:19:11;11.60;;;8.20;;
22080;SDS011;11207;59.512;18.050;2023-12-07T12:21:39;13.60;;;8.70;;
22080;SDS011;11207;59.512;18.050;2023-12-07T12:24:06;11.47;;;8.17;;
22080;SDS011;11207;59.512;18.050;2023-12-07T12:26:35;10.00;;;7.97;;
22080;SDS011;11207;59.512;18.050;2023-12-07T12:29:04;11.07;;;7.90;;
22080;SDS011;11207;59.512;18.050;2023-12-07T12:31:31;14.20;;;9.17;;
22080;SDS011;11207;59.512;18.050;2023-12-07T12:33:56;11.33;;;8.67;;
22080;SDS011;11207;59.512;18.050;2023-12-07T12:36:22;12.10;;;8.97;;
22080;SDS011;11207;59.512;18.050;2023-12-07T12:38:48;11.83;;;8.43;;
22080;SDS011;11207;59.512;18.050;2023-12-07T12:41:20;11.13;;;7.67;;
22080;SDS011;11207;59.512;18.050;2023-12-07T12:43:47;12.33;;;9.10;;
22080;SDS011;11207;59.512;18.050;2023-12-07T12:46:13;12.53;;;8.47;;
22080;SDS011;11207;59.512;18.050;2023-12-07T12:48:52;12.17;;;9.13;;
22080;SDS011;11207;59.512;18.050;2023-12-07T12:51:23;12.07;;;8.63;;
22080;SDS011;11207;59.512;18.050;2023-12-07T12:53:50;9.80;;;8.33;;
22080;SDS011;11207;59.512;18.050;2023-12-07T12:56:18;13.87;;;8.30;;
22080;SDS011;11207;59.512;18.050;2023-12-07T12:58:45;16.63;;;9.70;;
22080;SDS011;11207;59.512;18.050;2023-12-07T13:01:10;15.27;;;9.53;;
22080;SDS011;11207;59.512;18.050;2023-12-07T13:03:36;12.47;;;9.53;;
22080;SDS011;11207;59.512;18.050;2023-12-07T13:06:02;14.00;;;9.63;;
22080;SDS011;11207;59.512;18.050;2023-12-07T13:08:28;12.90;;;9.40;;
22080;SDS011;11207;59.512;18.050;2023-12-07T13:10:54;14.13;;;9.00;;
22080;SDS011;11207;59.512;18.050;2023-12-07T13:13:19;12.33;;;8.80;;
22080;SDS011;11207;59.512;18.050;2023-12-07T13:15:45;12.70;;;8.53;;
22080;SDS011;11207;59.512;18.050;2023-12-07T13:18:11;12.00;;;8.50;;
22080;SDS011;11207;59.512;18.050;2023-12-07T13:20:37;11.27;;;8.13;;
22080;SDS011;11207;59.512;18.050;2023-12-07T13:23:04;12.73;;;8.67;;
22080;SDS011;11207;59.512;18.050;2023-12-07T13:25:29;11.80;;;8.77;;
22080;SDS011;11207;59.512;18.050;2023-12-07T13:27:55;11.53;;;8.77;;
22080;SDS011;11207;59.512;18.050;2023-12-07T13:30:21;12.60;;;8.70;;
22080;SDS011;11207;59.512;18.050;2023-12-07T13:32:46;14.40;;;9.70;;
22080;SDS011;11207;59.512;18.050;2023-12-07T13:35:13;13.50;;;9.40;;
22080;SDS011;11207;59.512;18.050;2023-12-07T13:37:38;12.90;;;9.33;;
22080;SDS011;11207;59.512;18.050;2023-12-07T13:40:04;13.27;;;10.13;;
22080;SDS011;11207;59.512;18.050;2023-12-07T13:42:35;13.47;;;9.10;;
22080;SDS011;11207;59.512;18.050;2023-12-07T13:45:02;13.27;;;9.67;;
22080;SDS011;11207;59.512;18.050;2023-12-07T13:47:28;11.67;;;9.17;;
22080;SDS011;11207;59.512;18.050;2023-12-07T13:49:57;13.50;;;10.07;;
22080;SDS011;11207;59.512;18.050;2023-12-07T13:52:24;15.53;;;10.13;;
22080;SDS011;11207;59.512;18.050;2023-12-07T13:54:50;14.47;;;9.73;;
22080;SDS011;11207;59.512;18.050;2023-12-07T13:57:15;12.07;;;9.07;;
22080;SDS011;11207;59.512;18.050;2023-12-07T13:59:41;13.40;;;9.67;;
22080;SDS011;11207;59.512;18.050;2023-12-07T14:02:07;13.43;;;9.57;;
22080;SDS011;11207;59.512;18.050;2023-12-07T14:04:33;14.20;;;9.40;;
22080;SDS011;11207;59.512;18.050;2023-12-07T14:07:09;13.70;;;9.73;;
22080;SDS011;11207;59.512;18.050;2023-12-07T14:09:39;13.00;;;9.80;;
22080;SDS011;11207;59.512;18.050;2023-12-07T14:12:06;15.90;;;10.77;;
22080;SDS011;11207;59.512;18.050;2023-12-07T14:14:33;17.67;;;11.17;;
22080;SDS011;11207;59.512;18.050;2023-12-07T14:16:59;15.87;;;10.43;;
22080;SDS011;11207;59.512;18.050;2023-12-07T14:19:25;15.93;;;11.03;;
22080;SDS011;11207;59.512;18.050;2023-12-07T14:24:36;15.33;;;10.17;;
22080;SDS011;11207;59.512;18.050;2023-12-07T14:27:02;15.00;;;10.17;;
22080;SDS011;11207;59.512;18.050;2023-12-07T14:29:28;15.63;;;9.83;;
22080;SDS011;11207;59.512;18.050;2023-12-07T14:31:55;15.30;;;9.77;;